createdAt,value
2017-07-03T00:00:13.197Z,57.80
2017-07-03T00:02:39.514Z,57.50
2017-07-03T00:05:06.044Z,58.10
2017-07-03T00:07:32.619Z,57.80
2017-07-03T00:09:59.901Z,56.70
2017-07-03T00:12:26.266Z,56.70
2017-07-03T00:14:52.900Z,57.90
2017-07-03T00:17:19.229Z,58.60
2017-07-03T00:19:45.546Z,58.50
2017-07-03T00:22:11.849Z,58.40
2017-07-03T00:24:38.920Z,58.30
2017-07-03T00:27:05.260Z,59.00
2017-07-03T00:29:31.592Z,59.60
2017-07-03T00:31:58.128Z,59.00
2017-07-03T00:34:24.654Z,58.90
2017-07-03T00:36:51.267Z,58.40
2017-07-03T00:39:17.796Z,59.20
2017-07-03T00:41:44.393Z,58.70
2017-07-03T00:44:10.935Z,59.10
2017-07-03T00:46:37.936Z,59.70
2017-07-03T00:49:04.492Z,59.40
2017-07-03T00:51:31.039Z,59.80
2017-07-03T00:53:57.607Z,59.70
2017-07-03T00:56:31.360Z,60.80
2017-07-03T00:58:57.668Z,60.10
2017-07-03T01:01:23.979Z,59.90
2017-07-03T01:03:50.304Z,59.40
2017-07-03T01:06:16.622Z,59.70
2017-07-03T01:08:43.681Z,59.10
2017-07-03T01:11:10.880Z,60.20
2017-07-03T01:13:37.206Z,60.00
2017-07-03T01:16:03.521Z,60.40
2017-07-03T01:18:29.824Z,59.90
2017-07-03T01:20:56.128Z,59.70
2017-07-03T01:23:22.457Z,59.80
2017-07-03T01:25:48.800Z,60.00
2017-07-03T01:28:15.872Z,60.00
2017-07-03T01:30:42.206Z,60.20
2017-07-03T01:33:08.541Z,59.60
2017-07-03T01:35:34.877Z,59.70
2017-07-03T01:38:01.198Z,59.90
2017-07-03T01:40:27.548Z,60.70
2017-07-03T01:42:53.898Z,60.50
2017-07-03T01:45:20.228Z,61.10
2017-07-03T01:47:46.559Z,60.10
2017-07-03T01:50:13.007Z,60.10
2017-07-03T01:52:39.357Z,60.70
2017-07-03T01:55:05.729Z,61.80
2017-07-03T01:57:32.058Z,60.30
2017-07-03T01:59:58.383Z,60.20
2017-07-03T02:02:24.720Z,60.50
2017-07-03T02:04:51.106Z,60.90
2017-07-03T02:07:18.185Z,61.10
2017-07-03T02:09:44.528Z,61.00
2017-07-03T02:12:10.854Z,60.30
2017-07-03T02:14:37.176Z,61.20
2017-07-03T02:17:03.790Z,60.90
2017-07-03T02:19:30.120Z,60.30
2017-07-03T02:21:56.693Z,61.60
2017-07-03T02:24:23.248Z,60.30
2017-07-03T02:26:51.580Z,60.40
2017-07-03T02:29:17.998Z,60.40
2017-07-03T02:31:44.366Z,60.10
2017-07-03T02:34:11.444Z,60.50
2017-07-03T02:36:38.074Z,60.50
2017-07-03T02:39:04.379Z,60.30
2017-07-03T02:41:31.444Z,60.70
2017-07-03T02:43:57.806Z,60.70
2017-07-03T02:46:24.125Z,60.30
2017-07-03T02:48:50.445Z,59.90
2017-07-03T02:51:16.777Z,61.40
2017-07-03T02:53:43.104Z,61.80
2017-07-03T02:56:09.419Z,60.80
2017-07-03T02:58:35.727Z,61.20
2017-07-03T03:01:02.780Z,62.00
2017-07-03T03:03:29.832Z,60.60
2017-07-03T03:05:56.185Z,60.60
2017-07-03T03:08:22.514Z,61.10
2017-07-03T03:10:48.839Z,61.40
2017-07-03T03:13:15.147Z,61.50
2017-07-03T03:15:41.696Z,60.80
2017-07-03T03:18:08.260Z,61.50
2017-07-03T03:20:34.820Z,60.90
2017-07-03T03:23:01.372Z,61.10
2017-07-03T03:25:27.929Z,61.50
2017-07-03T03:27:54.520Z,61.70
2017-07-03T03:30:21.065Z,61.50
2017-07-03T03:32:47.676Z,62.00
2017-07-03T03:35:14.245Z,61.70
2017-07-03T03:37:40.800Z,62.00
2017-07-03T03:40:08.100Z,64.00
2017-07-03T03:42:34.708Z,63.80
2017-07-03T03:45:01.303Z,62.70
2017-07-03T03:47:27.803Z,62.30
2017-07-03T03:49:54.374Z,64.40
2017-07-03T03:52:20.973Z,62.80
2017-07-03T03:54:47.565Z,62.40
2017-07-03T03:57:14.230Z,63.00
2017-07-03T03:59:40.772Z,62.40
2017-07-03T04:02:07.353Z,62.10
2017-07-03T04:04:33.889Z,62.20
2017-07-03T04:07:00.456Z,63.20
2017-07-03T04:09:26.991Z,61.70
2017-07-03T04:11:54.258Z,63.40
2017-07-03T04:14:20.774Z,63.40
2017-07-03T04:16:47.223Z,63.70
2017-07-03T04:19:13.789Z,63.80
2017-07-03T04:21:41.122Z,64.40
2017-07-03T04:24:07.671Z,63.70
2017-07-03T04:26:34.387Z,63.80
2017-07-03T04:29:00.936Z,64.30
2017-07-03T04:31:27.505Z,65.20
2017-07-03T04:33:54.025Z,63.90
2017-07-03T04:36:20.568Z,63.90
2017-07-03T04:38:47.116Z,63.60
2017-07-03T04:41:13.652Z,63.90
2017-07-03T04:43:41.032Z,64.30
2017-07-03T04:46:07.601Z,63.30
2017-07-03T04:48:34.194Z,63.10
2017-07-03T04:51:00.763Z,61.90
2017-07-03T04:56:00.364Z,61.20
2017-07-03T04:58:26.700Z,61.60
2017-07-03T05:00:53.017Z,61.10
2017-07-03T05:03:19.325Z,60.30
2017-07-03T05:05:45.645Z,60.10
2017-07-03T05:08:11.954Z,59.60
2017-07-03T05:10:38.302Z,59.80
2017-07-03T05:13:04.616Z,59.40
2017-07-03T05:15:30.932Z,59.10
2017-07-03T05:17:57.245Z,57.80
2017-07-03T05:20:24.320Z,58.40
2017-07-03T05:22:50.624Z,57.50
2017-07-03T05:25:16.959Z,57.60
2017-07-03T05:27:43.332Z,57.60
2017-07-03T05:30:09.665Z,57.60
2017-07-03T05:32:35.989Z,58.40
2017-07-03T05:35:02.333Z,58.00
2017-07-03T05:37:28.712Z,58.00
2017-07-03T05:39:55.771Z,57.70
2017-07-03T05:42:22.132Z,57.60
2017-07-03T05:44:48.459Z,58.30
2017-07-03T05:47:15.757Z,56.30
2017-07-03T05:49:42.078Z,56.30
2017-07-03T05:52:08.625Z,55.60
2017-07-03T05:54:35.184Z,55.20
2017-07-03T05:57:01.727Z,55.40
2017-07-03T05:59:28.315Z,54.80
2017-07-03T06:01:54.909Z,55.20
2017-07-03T06:04:27.189Z,55.70
2017-07-03T06:06:53.536Z,55.10
2017-07-03T06:09:19.871Z,54.40
2017-07-03T06:11:46.209Z,54.60
2017-07-03T06:14:13.313Z,53.70
2017-07-03T06:16:39.660Z,54.70
2017-07-03T06:19:05.984Z,53.50
2017-07-03T06:21:32.312Z,52.90
2017-07-03T06:23:58.635Z,53.10
2017-07-03T06:26:24.953Z,53.00
2017-07-03T06:28:51.286Z,52.80
2017-07-03T06:31:17.616Z,53.60
2017-07-03T06:33:43.926Z,53.80
2017-07-03T06:36:11.356Z,52.80
2017-07-03T06:38:37.716Z,53.70
2017-07-03T06:41:04.037Z,53.70
2017-07-03T06:43:30.352Z,53.70
2017-07-03T06:45:56.744Z,54.00
2017-07-03T06:48:23.093Z,53.50
2017-07-03T06:50:50.444Z,51.60
2017-07-03T06:53:16.754Z,51.50
2017-07-03T06:55:43.075Z,50.10
2017-07-03T06:58:09.416Z,48.70
2017-07-03T07:00:35.724Z,51.20
2017-07-03T07:03:02.260Z,47.60
2017-07-03T07:05:28.820Z,48.70
2017-07-03T07:07:55.166Z,48.80
2017-07-03T07:10:21.579Z,48.90
2017-07-03T07:12:48.111Z,49.20
2017-07-03T07:15:14.689Z,49.30
2017-07-03T07:17:41.213Z,49.30
2017-07-03T07:20:07.768Z,49.00
2017-07-03T07:22:34.305Z,47.70
2017-07-03T07:25:00.878Z,50.40
2017-07-03T07:27:27.413Z,48.70
2017-07-03T07:29:53.967Z,47.80
2017-07-03T07:32:20.528Z,48.60
2017-07-03T07:34:47.783Z,46.70
2017-07-03T07:37:14.323Z,46.80
2017-07-03T07:39:42.430Z,47.50
2017-07-03T07:42:08.735Z,47.90
2017-07-03T07:44:35.791Z,47.10
2017-07-03T07:47:02.114Z,47.10
2017-07-03T07:49:28.664Z,46.90
2017-07-03T07:51:55.218Z,47.80
2017-07-03T07:54:21.773Z,46.50
2017-07-03T07:56:48.223Z,45.30
2017-07-03T07:59:14.776Z,45.40
2017-07-03T08:01:42.128Z,45.60
2017-07-03T08:04:08.474Z,45.60
2017-07-03T08:06:34.819Z,45.70
2017-07-03T08:09:01.614Z,44.60
2017-07-03T08:11:28.147Z,46.60
2017-07-03T08:13:54.789Z,45.00
2017-07-03T08:16:21.465Z,42.70
2017-07-03T08:18:47.885Z,42.10
2017-07-03T08:21:14.437Z,40.00
2017-07-03T08:23:41.014Z,36.90
2017-07-03T08:26:07.561Z,34.60
2017-07-03T08:28:34.077Z,34.70
2017-07-03T08:31:00.674Z,32.50
2017-07-03T08:33:27.228Z,29.80
2017-07-03T08:35:53.757Z,29.20
2017-07-03T08:38:20.195Z,28.70
2017-07-03T08:40:46.743Z,28.50
2017-07-03T08:43:13.967Z,27.30
2017-07-03T08:45:40.280Z,26.90
2017-07-03T08:48:06.811Z,25.30
2017-07-03T08:50:33.371Z,26.20
2017-07-03T08:52:59.886Z,26.90
2017-07-03T08:55:26.361Z,25.20
2017-07-03T08:57:52.864Z,25.30
2017-07-03T09:00:20.133Z,27.10
2017-07-03T09:02:46.655Z,27.10
2017-07-03T09:05:13.260Z,26.90
2017-07-03T09:07:39.881Z,29.20
2017-07-03T09:10:06.404Z,32.20
2017-07-03T09:12:32.855Z,33.50
2017-07-03T09:15:00.142Z,36.00
2017-07-03T09:17:26.484Z,35.40
2017-07-03T09:19:52.801Z,35.40
2017-07-03T09:22:19.401Z,36.50
2017-07-03T09:24:46.686Z,36.70
2017-07-03T09:27:13.109Z,36.60
2017-07-03T09:29:39.424Z,37.40
2017-07-03T09:32:05.737Z,39.60
2017-07-03T09:34:32.060Z,38.10
2017-07-03T09:36:58.600Z,37.10
2017-07-03T09:39:25.117Z,39.00
2017-07-03T09:41:51.689Z,37.30
2017-07-03T09:44:18.201Z,37.10
2017-07-03T09:46:44.510Z,37.30
2017-07-03T09:49:11.059Z,38.00
2017-07-03T09:51:44.467Z,37.90
2017-07-03T09:54:10.785Z,37.00
2017-07-03T09:56:37.103Z,38.40
2017-07-03T09:59:03.441Z,38.40
2017-07-03T10:01:29.774Z,41.50
2017-07-03T10:03:56.218Z,38.60
2017-07-03T10:06:23.312Z,38.50
2017-07-03T10:08:49.627Z,38.40
2017-07-03T10:11:15.960Z,37.40
2017-07-03T10:13:42.283Z,36.90
2017-07-03T10:16:08.584Z,35.30
2017-07-03T10:18:34.924Z,36.60
2017-07-03T10:21:01.988Z,39.80
2017-07-03T10:23:29.056Z,38.80
2017-07-03T10:25:55.372Z,38.60
2017-07-03T10:28:21.709Z,38.30
2017-07-03T10:30:48.747Z,37.70
2017-07-03T10:33:15.097Z,36.60
2017-07-03T10:35:41.413Z,37.70
2017-07-03T10:38:07.747Z,36.20
2017-07-03T10:40:34.055Z,36.80
2017-07-03T10:43:01.108Z,37.30
2017-07-03T10:45:28.150Z,35.40
2017-07-03T10:47:54.501Z,35.30
2017-07-03T10:50:20.916Z,35.10
2017-07-03T10:52:47.381Z,35.50
2017-07-03T10:55:13.855Z,36.90
2017-07-03T10:57:47.093Z,36.00
2017-07-03T11:00:13.583Z,35.90
2017-07-03T11:02:39.925Z,36.80
2017-07-03T11:05:06.237Z,36.60
2017-07-03T11:07:32.577Z,34.90
2017-07-03T11:09:59.628Z,33.60
2017-07-03T11:12:25.938Z,33.90
2017-07-03T11:14:52.260Z,33.90
2017-07-03T11:17:18.575Z,33.10
2017-07-03T11:19:44.888Z,33.40
2017-07-03T11:22:11.204Z,35.10
2017-07-03T11:24:37.539Z,36.80
2017-07-03T11:27:03.902Z,33.40
2017-07-03T11:29:30.243Z,35.00
2017-07-03T11:31:56.559Z,35.70
2017-07-03T11:34:22.881Z,34.40
2017-07-03T11:36:49.268Z,34.30
2017-07-03T11:39:15.585Z,34.20
2017-07-03T11:41:42.634Z,33.00
2017-07-03T11:44:08.983Z,32.90
2017-07-03T11:46:35.296Z,31.50
2017-07-03T11:49:01.584Z,34.10
2017-07-03T11:51:27.910Z,33.20
2017-07-03T11:53:54.213Z,33.90
2017-07-03T11:56:20.532Z,33.20
2017-07-03T11:58:47.592Z,33.60
2017-07-03T12:01:14.631Z,32.40
2017-07-03T12:03:40.948Z,32.30
2017-07-03T12:06:07.260Z,35.20
2017-07-03T12:08:33.571Z,31.90
2017-07-03T12:10:59.878Z,30.90
2017-07-03T12:13:26.198Z,30.70
2017-07-03T12:15:52.481Z,31.60
2017-07-03T12:18:19.554Z,31.90
2017-07-03T12:20:46.600Z,29.90
2017-07-03T12:23:12.932Z,29.90
2017-07-03T12:25:39.312Z,30.70
2017-07-03T12:28:05.621Z,30.60
2017-07-03T12:30:32.145Z,33.10
2017-07-03T12:32:58.682Z,31.60
2017-07-03T12:35:25.235Z,31.80
2017-07-03T12:37:51.775Z,32.80
2017-07-03T12:40:18.312Z,30.10
2017-07-03T12:42:44.835Z,33.50
2017-07-03T12:45:11.367Z,32.10
2017-07-03T12:47:37.919Z,30.90
2017-07-03T12:50:04.441Z,30.80
2017-07-03T12:52:30.971Z,32.50
2017-07-03T12:54:57.577Z,30.00
2017-07-03T12:57:24.109Z,31.50
2017-07-03T12:59:50.653Z,32.20
2017-07-03T13:02:17.240Z,31.30
2017-07-03T13:04:43.809Z,32.90
2017-07-03T13:07:10.321Z,28.80
2017-07-03T13:09:36.881Z,28.80
2017-07-03T13:12:03.391Z,31.10
2017-07-03T13:14:29.968Z,30.90
2017-07-03T13:16:56.505Z,32.70
2017-07-03T13:19:23.061Z,31.60
2017-07-03T13:21:49.599Z,33.00
2017-07-03T13:24:16.192Z,31.30
2017-07-03T13:26:43.465Z,30.00
2017-07-03T13:29:10.019Z,30.10
2017-07-03T13:31:36.474Z,30.60
2017-07-03T13:34:03.027Z,29.60
2017-07-03T13:36:30.304Z,31.60
2017-07-03T13:38:56.827Z,30.80
2017-07-03T13:41:24.104Z,31.40
2017-07-03T13:43:50.665Z,31.60
2017-07-03T13:46:17.216Z,31.20
2017-07-03T13:48:43.852Z,30.00
2017-07-03T13:51:10.373Z,30.00
2017-07-03T13:53:36.950Z,30.70
2017-07-03T13:56:03.509Z,31.70
2017-07-03T13:58:30.102Z,29.20
2017-07-03T14:00:56.773Z,30.10
2017-07-03T14:03:23.284Z,30.40
2017-07-03T14:05:49.862Z,31.00
2017-07-03T14:08:16.413Z,29.40
2017-07-03T14:10:42.966Z,31.80
2017-07-03T14:13:09.485Z,30.60
2017-07-03T14:15:36.052Z,31.00
2017-07-03T14:18:02.566Z,30.40
2017-07-03T14:20:29.144Z,29.30
2017-07-03T14:22:56.428Z,31.50
2017-07-03T14:25:23.002Z,30.90
2017-07-03T14:27:49.535Z,30.00
2017-07-03T14:30:16.114Z,29.90
2017-07-03T14:32:57.574Z,30.90
2017-07-03T14:35:23.878Z,30.90
2017-07-03T14:37:50.180Z,30.90
2017-07-03T14:40:16.497Z,30.00
2017-07-03T14:42:42.804Z,30.80
2017-07-03T14:45:09.092Z,30.40
2017-07-03T14:47:35.411Z,31.00
2017-07-03T14:50:01.871Z,29.60
2017-07-03T14:52:28.172Z,31.40
2017-07-03T14:54:54.485Z,30.90
2017-07-03T14:57:20.862Z,30.80
2017-07-03T14:59:47.148Z,32.30
2017-07-03T15:02:13.494Z,30.80
2017-07-03T15:04:39.804Z,30.80
2017-07-03T15:07:06.108Z,31.40
2017-07-03T15:09:32.447Z,32.00
2017-07-03T15:11:58.756Z,31.30
2017-07-03T15:14:25.849Z,31.40
2017-07-03T15:16:52.174Z,31.10
2017-07-03T15:19:18.517Z,31.60
2017-07-03T15:21:44.834Z,32.50
2017-07-03T15:24:11.159Z,32.50
2017-07-03T15:26:37.473Z,32.90
2017-07-03T15:29:12.321Z,30.90
2017-07-03T15:31:38.634Z,30.80
2017-07-03T15:34:04.956Z,31.40
2017-07-03T15:36:32.007Z,32.20
2017-07-03T15:38:58.296Z,32.10
2017-07-03T15:41:24.673Z,32.80
2017-07-03T15:43:51.072Z,33.60
2017-07-03T15:46:17.384Z,31.70
2017-07-03T15:48:43.688Z,32.10
2017-07-03T15:51:11.848Z,32.20
2017-07-03T15:53:39.143Z,32.90
2017-07-03T15:56:05.499Z,32.80
2017-07-03T15:58:31.963Z,33.90
2017-07-03T16:00:58.336Z,34.30
2017-07-03T16:03:24.649Z,34.50
2017-07-03T16:05:50.991Z,33.40
2017-07-03T16:08:17.303Z,33.90
2017-07-03T16:10:43.628Z,33.60
2017-07-03T16:13:09.951Z,33.90
2017-07-03T16:15:36.256Z,33.90
2017-07-03T16:18:03.315Z,34.20
2017-07-03T16:20:29.608Z,34.20
2017-07-03T16:22:56.663Z,34.00
2017-07-03T16:25:22.993Z,34.40
2017-07-03T16:27:49.297Z,35.20
2017-07-03T16:30:16.408Z,35.30
2017-07-03T16:32:42.725Z,35.10
2017-07-03T16:35:09.040Z,34.90
2017-07-03T16:37:35.347Z,34.60
2017-07-03T16:40:02.448Z,34.80
2017-07-03T16:42:28.760Z,34.70
2017-07-03T16:44:55.146Z,34.00
2017-07-03T16:47:22.469Z,33.60
2017-07-03T16:49:49.434Z,33.40
2017-07-03T16:52:15.727Z,33.50
2017-07-03T16:54:42.032Z,32.50
2017-07-03T16:57:08.337Z,34.80
2017-07-03T16:59:35.384Z,32.70
2017-07-03T17:02:04.212Z,32.60
2017-07-03T17:04:30.539Z,32.60
2017-07-03T17:09:29.959Z,33.10
2017-07-03T17:11:56.277Z,32.70
2017-07-03T17:14:22.610Z,33.40
2017-07-03T17:16:48.909Z,33.80
2017-07-03T17:19:16.006Z,33.80
2017-07-03T17:21:42.324Z,33.70
2017-07-03T17:24:08.707Z,33.70
2017-07-03T17:26:35.063Z,33.60
2017-07-03T17:29:01.366Z,33.80
2017-07-03T17:31:27.672Z,33.30
2017-07-03T17:33:53.968Z,33.90
2017-07-03T17:36:20.273Z,34.30
2017-07-03T17:38:47.309Z,34.20
2017-07-03T17:41:14.481Z,35.50
2017-07-03T17:43:40.783Z,35.10
2017-07-03T17:46:07.833Z,35.30
2017-07-03T17:48:34.888Z,34.80
2017-07-03T17:51:01.210Z,34.70
2017-07-03T17:53:27.526Z,34.70
2017-07-03T17:55:53.848Z,34.30
2017-07-03T17:58:20.153Z,35.80
2017-07-03T18:00:46.461Z,34.60
2017-07-03T18:03:12.785Z,35.50
2017-07-03T18:05:39.101Z,35.20
2017-07-03T18:08:06.159Z,36.80
2017-07-03T18:10:32.452Z,36.80
2017-07-03T18:12:58.774Z,36.60
2017-07-03T18:15:25.096Z,37.10
2017-07-03T18:17:51.409Z,36.50
2017-07-03T18:20:17.720Z,37.00
2017-07-03T18:22:44.028Z,37.50
2017-07-03T18:25:11.082Z,37.30
2017-07-03T18:27:37.415Z,37.30
2017-07-03T18:30:03.732Z,37.00
2017-07-03T18:32:30.083Z,37.50
2017-07-03T18:34:56.401Z,37.90
2017-07-03T18:37:22.743Z,37.90
2017-07-03T18:39:49.075Z,37.60
2017-07-03T18:42:15.458Z,37.70
2017-07-03T18:44:41.781Z,38.30
2017-07-03T18:47:08.115Z,38.10
2017-07-03T18:49:34.482Z,38.20
2017-07-03T18:52:00.862Z,39.10
2017-07-03T18:54:27.180Z,38.20
2017-07-03T18:56:53.611Z,39.10
2017-07-03T18:59:19.955Z,39.80
2017-07-03T19:01:46.300Z,39.10
2017-07-03T19:04:12.625Z,38.70
2017-07-03T19:06:39.020Z,40.20
2017-07-03T19:09:05.333Z,39.10
2017-07-03T19:11:31.701Z,39.20
2017-07-03T19:13:58.053Z,39.70
2017-07-03T19:16:24.371Z,39.10
2017-07-03T19:18:50.692Z,38.90
2017-07-03T19:21:17.315Z,39.00
2017-07-03T19:23:43.837Z,39.00
2017-07-03T19:26:10.352Z,39.10
2017-07-03T19:28:36.904Z,39.10
2017-07-03T19:31:03.493Z,39.90
2017-07-03T19:33:30.012Z,38.90
2017-07-03T19:35:57.291Z,40.10
2017-07-03T19:38:23.845Z,40.10
2017-07-03T19:40:50.449Z,39.30
2017-07-03T19:43:17.069Z,39.40
2017-07-03T19:45:44.416Z,38.50
2017-07-03T19:48:10.989Z,38.20
2017-07-03T19:50:37.591Z,38.80
2017-07-03T19:53:04.128Z,38.10
2017-07-03T19:55:30.685Z,37.70
2017-07-03T19:57:57.233Z,36.80
2017-07-03T20:00:23.775Z,37.90
2017-07-03T20:02:50.330Z,38.50
2017-07-03T20:05:16.906Z,38.90
2017-07-03T20:07:43.342Z,38.40
2017-07-03T20:10:09.884Z,38.80
2017-07-03T20:12:36.402Z,40.80
2017-07-03T20:15:03.420Z,40.50
2017-07-03T20:17:29.958Z,41.00
2017-07-03T20:19:56.483Z,41.00
2017-07-03T20:22:23.037Z,40.50
2017-07-03T20:24:49.547Z,40.70
2017-07-03T20:27:16.105Z,41.50
2017-07-03T20:29:42.649Z,42.20
2017-07-03T20:32:09.189Z,43.20
2017-07-03T20:34:35.841Z,42.10
2017-07-03T20:37:02.452Z,43.00
2017-07-03T20:39:29.040Z,43.40
2017-07-03T20:41:55.593Z,41.20
2017-07-03T20:44:22.122Z,42.30
2017-07-03T20:46:48.704Z,43.70
2017-07-03T20:49:15.274Z,42.80
2017-07-03T20:51:41.788Z,43.90
2017-07-03T20:54:09.064Z,42.60
2017-07-03T20:56:35.673Z,43.50
2017-07-03T20:59:02.222Z,42.30
2017-07-03T21:01:28.900Z,41.90
2017-07-03T21:03:56.100Z,41.70
2017-07-03T21:06:22.683Z,41.00
2017-07-03T21:08:49.235Z,42.80
2017-07-03T21:11:15.778Z,42.60
2017-07-03T21:13:42.338Z,41.00
2017-07-03T21:16:08.865Z,42.30
2017-07-03T21:18:35.440Z,41.40
2017-07-03T21:21:01.998Z,41.50
2017-07-03T21:23:28.535Z,40.60
2017-07-03T21:25:55.117Z,43.20
2017-07-03T21:28:21.655Z,41.90
2017-07-03T21:30:48.210Z,40.40
2017-07-03T21:33:14.761Z,40.30
2017-07-03T21:35:41.304Z,40.40
2017-07-03T21:38:07.865Z,41.20
2017-07-03T21:40:35.216Z,41.40
2017-07-03T21:43:01.699Z,41.30
2017-07-03T21:45:28.309Z,42.40
2017-07-03T21:47:55.011Z,41.40
2017-07-03T21:50:21.599Z,41.60
2017-07-03T21:52:48.152Z,42.00
2017-07-03T21:55:14.673Z,41.70
2017-07-03T21:57:41.180Z,42.40
2017-07-03T22:00:07.740Z,42.80
2017-07-03T22:02:34.268Z,42.20
2017-07-03T22:05:00.881Z,42.00
2017-07-03T22:07:27.436Z,41.80
2017-07-03T22:09:54.021Z,42.20
2017-07-03T22:12:20.821Z,42.80
2017-07-03T22:14:47.382Z,43.20
2017-07-03T22:17:13.929Z,42.50
2017-07-03T22:19:40.411Z,42.30
2017-07-03T22:22:07.212Z,42.60
2017-07-03T22:24:33.797Z,42.80
2017-07-03T22:27:00.381Z,42.70
2017-07-03T22:29:26.960Z,43.40
2017-07-03T22:31:53.491Z,43.00
2017-07-03T22:34:20.765Z,44.50
2017-07-03T22:36:48.368Z,44.40
2017-07-03T22:39:15.601Z,44.60
2017-07-03T22:41:42.172Z,45.30
2017-07-03T22:44:09.129Z,46.00
2017-07-03T22:46:35.572Z,46.50
2017-07-03T22:49:02.360Z,46.20
2017-07-03T22:51:29.013Z,46.20
2017-07-03T22:53:55.665Z,45.70
2017-07-03T22:56:22.253Z,46.50
2017-07-03T22:58:48.796Z,46.80
2017-07-03T23:01:15.373Z,46.60
2017-07-03T23:03:41.945Z,45.80
2017-07-03T23:06:08.512Z,45.50
2017-07-03T23:08:35.050Z,46.40
2017-07-03T23:11:01.588Z,46.20
2017-07-03T23:13:28.522Z,45.70
2017-07-03T23:15:55.069Z,45.70
2017-07-03T23:18:21.538Z,45.70
2017-07-03T23:20:48.104Z,45.70
2017-07-03T23:23:14.740Z,45.70
2017-07-03T23:25:41.281Z,46.10
2017-07-03T23:28:07.845Z,45.80
2017-07-03T23:30:34.396Z,45.80
2017-07-03T23:33:02.212Z,46.60
2017-07-03T23:35:29.492Z,46.40
2017-07-03T23:37:56.004Z,46.30
2017-07-03T23:40:22.579Z,46.00
2017-07-03T23:42:49.760Z,47.60
2017-07-03T23:45:17.065Z,47.90
2017-07-03T23:47:43.626Z,47.90
2017-07-03T23:50:10.167Z,47.10
2017-07-03T23:52:36.717Z,47.50
2017-07-03T23:55:03.270Z,48.70
2017-07-03T23:57:29.864Z,48.00
2017-07-03T23:59:56.425Z,46.70
